Time;durP1;ratioP1;P1;durP2;ratioP2;P2;SDS_P1;SDS_P2;PMS_P1;PMS_P2;Temp;Humidity;BMP_temperature;BMP_pressure;BME280_temperature;BME280_humidity;BME280_pressure;Samples;Min_cycle;Max_cycle;Signal;HPM_P1;HPM_P2
2022/11/16 00:01:54;;;;;;;18.87;11.90;;;;;;;;;;5070273;28;21002;-68
2022/11/16 00:04:22;;;;;;;19.87;12.80;;;;;;;;;;5079213;28;20454;-68
2022/11/16 00:06:50;;;;;;;19.23;12.63;;;;;;;;;;5079141;28;20780;-68
2022/11/16 00:09:25;;;;;;;20.17;12.43;;;;;;;;;;5079580;28;20455;-68
2022/11/16 00:11:54;;;;;;;21.47;14.17;;;;;;;;;;5078883;28;20829;-68
2022/11/16 00:14:28;;;;;;;24.93;14.30;;;;;;;;;;5078611;28;20476;-68
2022/11/16 00:16:56;;;;;;;16.27;11.20;;;;;;;;;;5077756;28;20447;-68
2022/11/16 00:19:25;;;;;;;21.57;14.30;;;;;;;;;;5078678;28;20546;-69
2022/11/16 00:21:52;;;;;;;26.43;13.63;;;;;;;;;;5078632;28;20494;-69
2022/11/16 00:24:21;;;;;;;22.57;14.50;;;;;;;;;;5078535;28;20526;-68
2022/11/16 00:26:49;;;;;;;23.80;14.87;;;;;;;;;;5079105;28;20547;-69
2022/11/16 00:29:17;;;;;;;18.83;12.80;;;;;;;;;;5078342;28;20491;-69
2022/11/16 00:31:47;;;;;;;19.60;12.60;;;;;;;;;;5077657;28;20543;-68
2022/11/16 00:34:14;;;;;;;20.43;13.53;;;;;;;;;;5085501;28;20452;-68
2022/11/16 00:36:42;;;;;;;22.83;15.00;;;;;;;;;;5078904;28;20594;-69
2022/11/16 00:39:11;;;;;;;21.40;12.97;;;;;;;;;;5078173;28;20878;-68
2022/11/16 00:41:42;;;;;;;20.30;12.53;;;;;;;;;;5077385;28;20496;-69
2022/11/16 00:44:10;;;;;;;20.13;14.07;;;;;;;;;;5077842;28;20488;-69
2022/11/16 00:46:38;;;;;;;20.77;12.53;;;;;;;;;;5078128;28;20496;-69
2022/11/16 00:49:07;;;;;;;21.33;15.17;;;;;;;;;;5076923;28;20547;-68
2022/11/16 00:51:36;;;;;;;22.30;14.57;;;;;;;;;;5089068;28;20463;-68
2022/11/16 00:54:04;;;;;;;22.60;14.50;;;;;;;;;;5098448;28;20498;-69
2022/11/16 00:56:31;;;;;;;22.57;13.70;;;;;;;;;;5098930;28;20451;-68
2022/11/16 00:59:02;;;;;;;24.27;14.30;;;;;;;;;;5098852;28;20538;-68
2022/11/16 01:01:30;;;;;;;25.20;13.90;;;;;;;;;;5096763;28;20536;-68
2022/11/16 01:03:57;;;;;;;27.10;14.90;;;;;;;;;;5098384;28;20557;-68
2022/11/16 01:06:33;;;;;;;20.27;13.47;;;;;;;;;;5098235;28;20493;-68
2022/11/16 01:09:01;;;;;;;21.87;13.43;;;;;;;;;;5098809;28;20487;-68
2022/11/16 01:14:13;;;;;;;26.30;14.10;;;;;;;;;;5098351;28;20890;-69
2022/11/16 01:16:41;;;;;;;26.87;15.90;;;;;;;;;;5098297;28;20539;-68
2022/11/16 01:19:10;;;;;;;25.70;14.47;;;;;;;;;;5081168;28;20807;-69
2022/11/16 01:21:39;;;;;;;25.17;14.63;;;;;;;;;;5077979;28;20516;-68
2022/11/16 01:24:07;;;;;;;28.40;14.13;;;;;;;;;;5077990;28;20463;-68
2022/11/16 01:26:35;;;;;;;23.70;14.10;;;;;;;;;;5077793;28;20791;-68
2022/11/16 01:29:05;;;;;;;25.60;14.07;;;;;;;;;;5077670;28;20464;-68
2022/11/16 01:31:34;;;;;;;26.03;15.17;;;;;;;;;;5077872;28;20555;-68
2022/11/16 01:34:01;;;;;;;25.93;16.70;;;;;;;;;;5077934;28;20468;-68
2022/11/16 01:36:29;;;;;;;24.37;12.80;;;;;;;;;;5078110;28;20539;-68
2022/11/16 01:38:58;;;;;;;32.80;16.40;;;;;;;;;;5077724;28;20464;-68
2022/11/16 01:41:27;;;;;;;27.07;15.77;;;;;;;;;;5078006;28;20752;-69
2022/11/16 01:43:57;;;;;;;27.63;15.30;;;;;;;;;;5077679;28;20468;-68
2022/11/16 01:46:25;;;;;;;27.67;15.50;;;;;;;;;;5076299;28;20543;-69
2022/11/16 01:48:56;;;;;;;28.77;14.50;;;;;;;;;;5076420;28;20803;-69
2022/11/16 01:51:23;;;;;;;27.80;16.17;;;;;;;;;;5076859;28;20864;-68
2022/11/16 01:53:52;;;;;;;22.37;13.60;;;;;;;;;;5076157;28;20499;-69
2022/11/16 01:56:21;;;;;;;21.63;13.80;;;;;;;;;;5076286;28;20543;-68
2022/11/16 01:58:52;;;;;;;30.33;15.27;;;;;;;;;;5088959;28;20460;-69
2022/11/16 02:01:20;;;;;;;29.37;14.80;;;;;;;;;;5096713;28;20537;-68
2022/11/16 02:03:48;;;;;;;25.00;14.83;;;;;;;;;;5097190;28;20716;-68
2022/11/16 02:06:25;;;;;;;28.77;15.53;;;;;;;;;;5087123;28;20548;-69
2022/11/16 02:11:53;;;;;;;24.80;15.00;;;;;;;;;;5025438;28;20509;-68
2022/11/16 02:14:28;;;;;;;25.27;15.40;;;;;;;;;;5056763;28;20463;-69
2022/11/16 02:17:00;;;;;;;26.90;14.90;;;;;;;;;;5056425;28;20514;-69
2022/11/16 02:19:46;;;;;;;28.10;14.50;;;;;;;;;;5057146;28;20483;-69
2022/11/16 02:22:22;;;;;;;23.07;14.03;;;;;;;;;;5056158;28;20794;-69
2022/11/16 02:24:53;;;;;;;31.07;15.70;;;;;;;;;;5057098;28;20535;-69
2022/11/16 02:27:34;;;;;;;28.63;14.77;;;;;;;;;;5089295;28;20497;-68
2022/11/16 02:30:04;;;;;;;22.83;16.03;;;;;;;;;;5097303;28;20483;-69
2022/11/16 02:32:37;;;;;;;28.47;16.77;;;;;;;;;;5096845;28;20839;-68
2022/11/16 02:35:07;;;;;;;26.90;13.67;;;;;;;;;;5080123;28;20714;-68
2022/11/16 02:37:36;;;;;;;23.53;14.67;;;;;;;;;;5076529;28;20475;-69
2022/11/16 02:40:07;;;;;;;24.87;15.37;;;;;;;;;;5077100;28;20484;-69
2022/11/16 02:42:37;;;;;;;27.00;13.43;;;;;;;;;;5076282;28;20495;-68
2022/11/16 02:45:12;;;;;;;23.57;13.60;;;;;;;;;;5076395;28;20437;-68
2022/11/16 02:47:41;;;;;;;24.43;13.77;;;;;;;;;;5076225;28;20464;-68
2022/11/16 02:50:14;;;;;;;33.40;15.27;;;;;;;;;;5076579;28;20488;-68
2022/11/16 02:52:42;;;;;;;31.83;14.50;;;;;;;;;;5075903;28;20468;-68
2022/11/16 02:55:10;;;;;;;27.00;15.43;;;;;;;;;;5075965;28;20800;-69
2022/11/16 02:57:41;;;;;;;29.87;16.63;;;;;;;;;;5075308;28;20475;-69
2022/11/16 03:00:13;;;;;;;26.23;16.40;;;;;;;;;;5076145;28;21009;-68
2022/11/16 03:02:45;;;;;;;29.23;14.57;;;;;;;;;;5076374;28;20633;-68
2022/11/16 03:05:16;;;;;;;24.87;14.17;;;;;;;;;;5080396;28;20773;-68
2022/11/16 03:07:47;;;;;;;28.77;13.97;;;;;;;;;;5080719;28;20937;-68
2022/11/16 03:11:58;;;;;;;32.70;16.13;;;;;;;;;;5072666;28;20535;-69
2022/11/16 03:13:03;;;;;;;30.93;14.40;;;;;;;;;;5069493;28;20438;-68
2022/11/16 03:15:32;;;;;;;25.63;13.50;;;;;;;;;;5079296;28;20468;-69
2022/11/16 03:18:01;;;;;;;23.87;13.37;;;;;;;;;;5080276;28;20727;-69
2022/11/16 03:20:31;;;;;;;26.30;15.00;;;;;;;;;;5083974;28;20463;-69
2022/11/16 03:22:59;;;;;;;29.40;14.60;;;;;;;;;;5094289;28;20537;-68
2022/11/16 03:25:28;;;;;;;25.03;13.87;;;;;;;;;;5064233;28;20450;-68
2022/11/16 03:28:03;;;;;;;28.63;14.20;;;;;;;;;;5059470;28;20737;-68
2022/11/16 03:30:35;;;;;;;25.73;14.60;;;;;;;;;;5060653;28;20452;-69
2022/11/16 03:33:05;;;;;;;26.80;13.70;;;;;;;;;;5075132;28;20469;-69
2022/11/16 03:35:35;;;;;;;23.50;13.57;;;;;;;;;;5080073;28;20456;-68
2022/11/16 03:38:04;;;;;;;25.27;12.90;;;;;;;;;;5080421;28;20543;-69
2022/11/16 03:40:33;;;;;;;28.77;14.53;;;;;;;;;;5079577;28;20539;-69
2022/11/16 03:43:02;;;;;;;20.37;13.40;;;;;;;;;;5080140;28;20474;-69
2022/11/16 03:45:30;;;;;;;22.30;12.63;;;;;;;;;;5079732;28;20460;-69
2022/11/16 03:47:59;;;;;;;21.27;13.20;;;;;;;;;;5080366;28;20798;-69
2022/11/16 03:50:27;;;;;;;25.13;12.93;;;;;;;;;;5079777;28;20535;-69
2022/11/16 03:52:55;;;;;;;22.50;12.57;;;;;;;;;;5078460;28;20452;-69
2022/11/16 03:55:22;;;;;;;21.00;13.93;;;;;;;;;;5079645;28;20470;-69
2022/11/16 03:57:50;;;;;;;23.30;14.97;;;;;;;;;;5079073;28;20472;-69
2022/11/16 04:00:21;;;;;;;27.33;14.63;;;;;;;;;;5081713;28;20482;-69
2022/11/16 04:02:49;;;;;;;31.30;16.57;;;;;;;;;;5098856;28;20616;-68
2022/11/16 04:24:41;;;;;;;31.87;15.80;;;;;;;;;;5098202;28;20439;-68
2022/11/16 04:29:55;;;;;;;24.87;12.73;;;;;;;;;;5091763;28;20532;-67
2022/11/16 04:37:56;;;;;;;26.37;14.57;;;;;;;;;;5094299;28;20448;-69
2022/11/16 04:40:25;;;;;;;26.00;14.67;;;;;;;;;;5098861;28;20743;-69
2022/11/16 04:42:53;;;;;;;23.13;14.53;;;;;;;;;;5098968;28;20479;-68
2022/11/16 04:48:07;;;;;;;25.67;12.27;;;;;;;;;;5098121;28;20521;-69
2022/11/16 04:50:35;;;;;;;27.27;13.87;;;;;;;;;;5098112;28;20459;-69
2022/11/16 04:53:05;;;;;;;25.30;15.77;;;;;;;;;;5097016;28;20463;-68
2022/11/16 04:55:36;;;;;;;23.80;13.37;;;;;;;;;;5077214;28;20461;-68
2022/11/16 04:58:04;;;;;;;28.83;13.63;;;;;;;;;;5096887;28;20469;-69
2022/11/16 05:00:32;;;;;;;23.67;13.00;;;;;;;;;;5097726;28;20558;-68
2022/11/16 05:02:59;;;;;;;26.90;12.70;;;;;;;;;;5098632;28;20495;-68
2022/11/16 05:05:27;;;;;;;26.53;13.73;;;;;;;;;;5098863;28;20462;-68
2022/11/16 05:07:55;;;;;;;27.77;12.80;;;;;;;;;;5098857;28;20459;-68
2022/11/16 05:10:24;;;;;;;22.73;13.93;;;;;;;;;;5098388;28;20523;-68
2022/11/16 05:12:52;;;;;;;21.87;13.57;;;;;;;;;;5097814;28;20543;-68
2022/11/16 05:15:19;;;;;;;22.63;13.60;;;;;;;;;;5098231;28;20494;-68
2022/11/16 05:17:47;;;;;;;25.70;16.13;;;;;;;;;;5083175;28;20536;-68
2022/11/16 05:23:03;;;;;;;26.70;14.70;;;;;;;;;;5078114;28;20478;-68
2022/11/16 05:25:31;;;;;;;27.30;13.43;;;;;;;;;;5077019;28;20959;-68
2022/11/16 05:27:59;;;;;;;24.87;13.07;;;;;;;;;;5064409;28;20457;-68
2022/11/16 05:30:28;;;;;;;24.37;12.60;;;;;;;;;;5098226;28;20456;-68
2022/11/16 05:32:59;;;;;;;26.60;13.97;;;;;;;;;;5098113;28;20455;-68
2022/11/16 05:35:27;;;;;;;19.33;12.13;;;;;;;;;;5097721;28;20865;-68
2022/11/16 05:37:57;;;;;;;26.57;13.37;;;;;;;;;;5096737;28;20459;-68
2022/11/16 05:40:25;;;;;;;27.00;13.37;;;;;;;;;;5080088;28;20586;-68
2022/11/16 05:42:54;;;;;;;23.73;13.37;;;;;;;;;;5067063;28;20542;-68
2022/11/16 05:45:22;;;;;;;27.70;14.63;;;;;;;;;;5056581;28;20505;-68
2022/11/16 05:47:50;;;;;;;33.00;13.80;;;;;;;;;;5056444;28;20469;-68
2022/11/16 05:50:17;;;;;;;24.90;14.23;;;;;;;;;;5056991;28;20571;-68
2022/11/16 05:52:45;;;;;;;26.40;13.50;;;;;;;;;;5059153;28;20472;-68
2022/11/16 05:55:13;;;;;;;33.67;17.10;;;;;;;;;;5073733;28;20488;-68
2022/11/16 05:57:47;;;;;;;29.30;13.30;;;;;;;;;;5078326;28;20559;-69
2022/11/16 06:00:17;;;;;;;23.50;13.07;;;;;;;;;;5073984;28;20468;-68
2022/11/16 06:02:45;;;;;;;27.47;14.10;;;;;;;;;;5067096;28;20480;-68
2022/11/16 06:05:13;;;;;;;26.40;12.00;;;;;;;;;;5076087;28;20880;-68
2022/11/16 06:07:41;;;;;;;23.43;12.97;;;;;;;;;;5075452;28;20455;-68
2022/11/16 06:10:09;;;;;;;25.30;13.13;;;;;;;;;;5076313;28;20508;-69
2022/11/16 06:12:36;;;;;;;23.23;14.53;;;;;;;;;;5074699;28;20804;-70
2022/11/16 06:15:04;;;;;;;31.40;14.50;;;;;;;;;;5075360;28;20460;-70
2022/11/16 06:17:35;;;;;;;27.40;14.20;;;;;;;;;;5074904;28;20459;-70
2022/11/16 06:20:03;;;;;;;32.50;15.17;;;;;;;;;;5059882;28;20551;-69
2022/11/16 06:22:31;;;;;;;26.90;12.20;;;;;;;;;;5062491;28;20538;-69
2022/11/16 06:24:59;;;;;;;26.43;12.83;;;;;;;;;;5074021;28;20463;-69
2022/11/16 06:27:26;;;;;;;34.17;14.10;;;;;;;;;;5075184;28;20849;-69
2022/11/16 06:29:55;;;;;;;23.90;12.50;;;;;;;;;;5075209;28;20554;-70
2022/11/16 06:32:23;;;;;;;27.60;12.97;;;;;;;;;;5073388;28;20459;-70
2022/11/16 06:34:53;;;;;;;22.93;13.80;;;;;;;;;;5074429;28;20460;-71
2022/11/16 06:37:21;;;;;;;23.80;12.53;;;;;;;;;;5074547;28;20445;-70
2022/11/16 06:39:49;;;;;;;23.17;13.70;;;;;;;;;;5080854;28;20477;-71
2022/11/16 06:42:19;;;;;;;25.20;12.47;;;;;;;;;;5061699;28;20947;-71
2022/11/16 06:44:49;;;;;;;30.90;13.67;;;;;;;;;;5064416;28;20493;-71
2022/11/16 06:47:16;;;;;;;23.43;12.97;;;;;;;;;;5070799;28;20560;-71
2022/11/16 06:49:44;;;;;;;22.07;11.70;;;;;;;;;;5074008;28;20723;-69
2022/11/16 06:52:13;;;;;;;29.20;13.67;;;;;;;;;;5074335;28;20460;-68
2022/11/16 06:54:41;;;;;;;26.53;14.03;;;;;;;;;;5069219;28;20452;-68
2022/11/16 06:57:14;;;;;;;23.27;12.00;;;;;;;;;;5074545;28;20474;-72
2022/11/16 06:59:42;;;;;;;27.83;14.10;;;;;;;;;;5073837;28;20461;-73
2022/11/16 07:02:11;;;;;;;25.70;12.77;;;;;;;;;;5073964;28;20959;-73
2022/11/16 07:04:39;;;;;;;29.07;16.20;;;;;;;;;;5074638;28;20550;-74
2022/11/16 07:07:07;;;;;;;29.53;14.27;;;;;;;;;;5068311;28;20501;-73
2022/11/16 07:09:36;;;;;;;27.70;14.77;;;;;;;;;;5070758;28;20518;-71
2022/11/16 07:12:05;;;;;;;37.63;16.40;;;;;;;;;;5087419;28;20456;-69
2022/11/16 07:14:54;;;;;;;25.27;14.23;;;;;;;;;;5094914;28;20455;-69
2022/11/16 07:17:22;;;;;;;29.13;13.90;;;;;;;;;;5076082;28;20459;-68
2022/11/16 07:19:50;;;;;;;25.13;14.77;;;;;;;;;;5073009;28;20463;-66
2022/11/16 07:22:21;;;;;;;28.93;14.90;;;;;;;;;;5054282;28;20493;-68
2022/11/16 07:24:51;;;;;;;27.87;14.53;;;;;;;;;;5054788;28;20820;-69
2022/11/16 07:27:18;;;;;;;25.13;14.37;;;;;;;;;;5059464;28;20496;-69
2022/11/16 07:29:51;;;;;;;26.17;14.60;;;;;;;;;;5071562;28;20548;-70
2022/11/16 07:32:23;;;;;;;32.83;15.80;;;;;;;;;;5069269;28;20480;-69
2022/11/16 07:34:51;;;;;;;22.37;14.03;;;;;;;;;;5054462;28;20896;-70
2022/11/16 07:37:23;;;;;;;27.67;15.20;;;;;;;;;;5072955;28;21024;-70
2022/11/16 07:39:52;;;;;;;23.50;13.70;;;;;;;;;;5067042;28;20468;-70
2022/11/16 07:42:24;;;;;;;23.97;14.40;;;;;;;;;;5074016;28;21075;-69
2022/11/16 07:44:52;;;;;;;26.90;13.80;;;;;;;;;;5055111;28;20476;-69
2022/11/16 07:47:25;;;;;;;29.50;15.47;;;;;;;;;;5067500;28;20878;-69
2022/11/16 07:49:56;;;;;;;22.63;14.60;;;;;;;;;;5071986;28;20954;-70
2022/11/16 07:52:26;;;;;;;29.53;14.57;;;;;;;;;;5074800;28;20474;-70
2022/11/16 07:54:58;;;;;;;31.90;14.83;;;;;;;;;;5078527;28;20555;-69
2022/11/16 07:57:28;;;;;;;24.03;14.60;;;;;;;;;;5079649;28;20459;-70
2022/11/16 07:59:59;;;;;;;21.87;12.43;;;;;;;;;;5081729;28;20460;-69
2022/11/16 08:02:27;;;;;;;29.43;16.63;;;;;;;;;;5075946;28;20557;-68
2022/11/16 08:04:55;;;;;;;31.10;15.77;;;;;;;;;;5064812;28;20478;-69
2022/11/16 08:07:28;;;;;;;28.70;16.10;;;;;;;;;;5073320;28;20465;-68
2022/11/16 08:09:58;;;;;;;26.77;14.30;;;;;;;;;;5068746;28;20514;-69
2022/11/16 08:12:28;;;;;;;26.13;14.27;;;;;;;;;;5069008;28;20499;-69
2022/11/16 08:17:55;;;;;;;25.97;13.93;;;;;;;;;;5069133;28;20911;-69
2022/11/16 08:20:22;;;;;;;25.27;14.20;;;;;;;;;;5066841;28;20604;-69
2022/11/16 08:22:50;;;;;;;21.03;14.60;;;;;;;;;;5075673;28;20510;-70
2022/11/16 08:25:20;;;;;;;28.77;16.10;;;;;;;;;;5068870;28;20880;-69
2022/11/16 08:27:47;;;;;;;25.60;14.50;;;;;;;;;;5072858;28;20559;-69
2022/11/16 08:30:17;;;;;;;29.07;13.90;;;;;;;;;;5070316;28;20473;-70
2022/11/16 08:32:46;;;;;;;26.87;14.23;;;;;;;;;;5069984;28;21042;-69
2022/11/16 08:35:14;;;;;;;28.30;15.80;;;;;;;;;;5080871;28;20525;-70
2022/11/16 08:37:56;;;;;;;29.77;16.33;;;;;;;;;;5073414;28;20555;-69
2022/11/16 08:40:28;;;;;;;31.53;16.93;;;;;;;;;;5063442;28;20465;-70
2022/11/16 08:42:56;;;;;;;32.87;16.10;;;;;;;;;;5060068;28;20572;-70
2022/11/16 08:45:24;;;;;;;28.80;13.43;;;;;;;;;;5072864;28;20563;-70
2022/11/16 08:47:53;;;;;;;26.97;15.53;;;;;;;;;;5072540;28;20472;-70
2022/11/16 08:50:22;;;;;;;29.97;15.73;;;;;;;;;;5073667;28;20470;-69
2022/11/16 08:52:58;;;;;;;27.63;16.20;;;;;;;;;;5075240;28;20767;-70
2022/11/16 08:55:29;;;;;;;31.97;16.67;;;;;;;;;;5064211;28;21108;-70
2022/11/16 08:58:00;;;;;;;23.37;14.23;;;;;;;;;;5064799;28;20476;-69
2022/11/16 09:00:30;;;;;;;30.20;15.90;;;;;;;;;;5066759;28;20474;-69
2022/11/16 09:02:58;;;;;;;31.80;15.73;;;;;;;;;;5069555;28;20525;-70
2022/11/16 09:05:43;;;;;;;25.23;13.33;;;;;;;;;;5056814;28;20873;-69
2022/11/16 09:08:14;;;;;;;38.50;18.10;;;;;;;;;;5061133;28;20472;-67
2022/11/16 09:10:44;;;;;;;33.43;14.73;;;;;;;;;;5069744;28;20464;-69
2022/11/16 09:13:24;;;;;;;29.57;14.77;;;;;;;;;;5059953;28;20464;-69
2022/11/16 09:16:09;;;;;;;27.40;15.43;;;;;;;;;;5067698;28;20544;-70
2022/11/16 09:18:44;;;;;;;32.10;16.30;;;;;;;;;;5059288;28;20511;-69
2022/11/16 09:21:37;;;;;;;36.07;18.40;;;;;;;;;;5075404;28;20488;-70
2022/11/16 09:24:10;;;;;;;34.53;16.00;;;;;;;;;;5065601;28;20488;-70
2022/11/16 09:26:42;;;;;;;33.13;15.43;;;;;;;;;;5081303;28;20480;-71
2022/11/16 09:29:13;;;;;;;30.10;15.60;;;;;;;;;;5070921;28;20490;-70
2022/11/16 09:31:40;;;;;;;36.03;17.57;;;;;;;;;;5068018;28;20468;-67
2022/11/16 09:37:02;;;;;;;32.47;16.60;;;;;;;;;;5063363;28;20453;-68
2022/11/16 09:39:41;;;;;;;31.83;16.30;;;;;;;;;;5060314;28;20903;-69
2022/11/16 09:42:26;;;;;;;29.57;16.70;;;;;;;;;;5060154;28;20465;-68
2022/11/16 09:44:59;;;;;;;32.93;15.93;;;;;;;;;;5060491;28;20479;-69
2022/11/16 09:47:47;;;;;;;30.13;16.80;;;;;;;;;;5055969;28;20467;-69
2022/11/16 09:50:36;;;;;;;30.37;16.77;;;;;;;;;;5061611;28;20504;-70
2022/11/16 09:53:31;;;;;;;30.40;15.47;;;;;;;;;;5055484;28;20543;-71
2022/11/16 09:56:01;;;;;;;31.40;16.53;;;;;;;;;;5069257;28;20464;-70
2022/11/16 09:58:41;;;;;;;29.53;14.40;;;;;;;;;;5061001;28;20804;-70
2022/11/16 10:01:29;;;;;;;34.87;15.97;;;;;;;;;;5072449;28;20864;-71
2022/11/16 10:03:59;;;;;;;30.57;16.20;;;;;;;;;;5062372;28;20464;-68
2022/11/16 10:06:31;;;;;;;41.57;15.67;;;;;;;;;;5075790;28;20895;-70
2022/11/16 10:08:59;;;;;;;28.17;13.60;;;;;;;;;;5074246;28;20468;-70
2022/11/16 10:11:34;;;;;;;33.63;16.03;;;;;;;;;;5066983;28;20464;-69
2022/11/16 10:14:09;;;;;;;33.70;16.30;;;;;;;;;;5071059;28;20467;-71
2022/11/16 10:16:41;;;;;;;38.20;18.17;;;;;;;;;;5072053;28;20464;-70
2022/11/16 10:19:28;;;;;;;32.30;15.80;;;;;;;;;;5072221;28;20464;-71
2022/11/16 10:21:59;;;;;;;30.57;15.40;;;;;;;;;;5074335;28;20934;-71
2022/11/16 10:24:37;;;;;;;31.23;15.37;;;;;;;;;;5071717;28;20564;-70
2022/11/16 10:27:16;;;;;;;45.30;19.23;;;;;;;;;;5070322;28;20471;-69
2022/11/16 10:29:52;;;;;;;32.80;17.60;;;;;;;;;;5071888;28;20444;-69
2022/11/16 10:32:27;;;;;;;37.40;16.37;;;;;;;;;;5061295;28;20483;-70
2022/11/16 10:34:55;;;;;;;35.03;16.73;;;;;;;;;;5065956;28;20496;-70
2022/11/16 10:37:28;;;;;;;42.80;17.50;;;;;;;;;;5064973;28;20456;-69
2022/11/16 10:40:09;;;;;;;30.17;15.27;;;;;;;;;;5068347;28;20453;-71
2022/11/16 10:42:44;;;;;;;34.77;17.07;;;;;;;;;;5058412;28;20519;-70
2022/11/16 10:45:27;;;;;;;31.77;14.50;;;;;;;;;;5060152;28;20477;-71
2022/11/16 10:47:58;;;;;;;39.83;16.90;;;;;;;;;;5056801;28;20900;-70
2022/11/16 10:50:36;;;;;;;33.47;16.30;;;;;;;;;;5059741;28;20551;-72
2022/11/16 10:53:07;;;;;;;35.30;17.33;;;;;;;;;;5061446;28;21529;-70
2022/11/16 10:55:53;;;;;;;28.23;15.60;;;;;;;;;;5063346;28;20491;-70
2022/11/16 10:58:32;;;;;;;34.77;16.90;;;;;;;;;;5065561;28;21047;-69
2022/11/16 11:01:06;;;;;;;40.53;18.17;;;;;;;;;;5060131;28;20479;-73
2022/11/16 11:06:50;;;;;;;32.20;16.63;;;;;;;;;;5053045;28;21048;-72
2022/11/16 11:09:26;;;;;;;38.73;17.63;;;;;;;;;;5061443;28;20651;-70
2022/11/16 11:15:02;;;;;;;33.33;17.20;;;;;;;;;;5069201;28;20448;-70
2022/11/16 11:17:43;;;;;;;39.00;18.60;;;;;;;;;;5072808;28;20541;-70
2022/11/16 11:20:22;;;;;;;42.30;16.40;;;;;;;;;;5065967;28;20480;-70
2022/11/16 11:22:54;;;;;;;37.07;20.17;;;;;;;;;;5055836;28;20848;-68
2022/11/16 11:25:38;;;;;;;47.77;19.60;;;;;;;;;;5065124;28;20464;-68
2022/11/16 11:28:08;;;;;;;37.60;17.57;;;;;;;;;;5070822;28;20556;-69
2022/11/16 11:30:38;;;;;;;47.20;17.97;;;;;;;;;;5068318;28;20474;-69
2022/11/16 11:33:12;;;;;;;38.80;19.63;;;;;;;;;;5063669;28;20768;-69
2022/11/16 11:35:40;;;;;;;37.17;18.30;;;;;;;;;;5067623;28;20741;-68
2022/11/16 11:38:19;;;;;;;32.63;16.83;;;;;;;;;;5073042;28;20559;-70
2022/11/16 11:40:57;;;;;;;31.47;15.50;;;;;;;;;;5077553;28;20444;-70
2022/11/16 11:43:29;;;;;;;41.23;17.63;;;;;;;;;;5072173;28;20492;-70
2022/11/16 11:46:02;;;;;;;32.90;16.67;;;;;;;;;;5064657;28;20480;-69
2022/11/16 11:48:35;;;;;;;41.90;16.43;;;;;;;;;;5066945;28;20464;-70
2022/11/16 11:51:13;;;;;;;32.37;15.77;;;;;;;;;;5075505;28;20497;-69
2022/11/16 11:53:48;;;;;;;28.83;14.97;;;;;;;;;;5058263;28;20976;-68
2022/11/16 11:56:24;;;;;;;42.17;16.33;;;;;;;;;;5075056;28;20524;-68
2022/11/16 11:58:56;;;;;;;39.30;17.20;;;;;;;;;;5065671;28;20467;-69
2022/11/16 12:02:01;;;;;;;38.53;16.23;;;;;;;;;;5078770;28;20801;-67
2022/11/16 12:04:53;;;;;;;36.10;14.67;;;;;;;;;;5075728;28;21051;-69
2022/11/16 12:07:30;;;;;;;34.87;17.50;;;;;;;;;;5061637;28;20464;-68
2022/11/16 12:10:11;;;;;;;32.30;17.97;;;;;;;;;;5055681;28;20954;-70
2022/11/16 12:12:51;;;;;;;31.93;14.97;;;;;;;;;;5069607;28;20800;-69
2022/11/16 12:15:37;;;;;;;37.93;17.43;;;;;;;;;;5074375;28;20508;-69
2022/11/16 12:18:29;;;;;;;46.57;19.90;;;;;;;;;;5085783;28;20475;-69
2022/11/16 12:21:02;;;;;;;36.30;15.83;;;;;;;;;;5075843;28;20528;-69
2022/11/16 12:23:45;;;;;;;38.13;18.43;;;;;;;;;;5074213;28;20476;-68
2022/11/16 12:26:21;;;;;;;40.63;20.00;;;;;;;;;;5055542;28;20487;-69
2022/11/16 12:29:01;;;;;;;28.70;15.30;;;;;;;;;;5071326;28;20452;-68
2022/11/16 12:31:50;;;;;;;35.50;17.90;;;;;;;;;;5074297;28;20470;-69
2022/11/16 12:34:24;;;;;;;35.83;16.40;;;;;;;;;;5070109;28;20460;-69
2022/11/16 12:36:55;;;;;;;34.30;15.73;;;;;;;;;;5074672;28;20464;-69
2022/11/16 12:39:24;;;;;;;32.63;15.37;;;;;;;;;;5076015;28;21194;-69
2022/11/16 12:42:04;;;;;;;37.63;18.37;;;;;;;;;;5073579;28;20785;-69
2022/11/16 12:44:41;;;;;;;40.70;18.60;;;;;;;;;;5076053;28;20490;-70
2022/11/16 12:47:17;;;;;;;35.50;16.03;;;;;;;;;;5081407;28;20905;-70
2022/11/16 12:50:00;;;;;;;40.00;18.40;;;;;;;;;;5073846;28;20768;-69
2022/11/16 12:52:44;;;;;;;40.83;17.53;;;;;;;;;;5073231;28;20459;-69
2022/11/16 12:55:24;;;;;;;41.00;18.13;;;;;;;;;;5042891;28;20505;-70
2022/11/16 12:58:04;;;;;;;33.47;17.27;;;;;;;;;;5086450;28;20482;-70
2022/11/16 13:00:40;;;;;;;42.27;18.33;;;;;;;;;;5093416;28;20505;-70
2022/11/16 13:03:23;;;;;;;40.37;18.53;;;;;;;;;;5081406;28;20565;-69
2022/11/16 13:06:01;;;;;;;47.77;18.53;;;;;;;;;;5076961;28;20487;-70
2022/11/16 13:08:43;;;;;;;37.03;17.70;;;;;;;;;;5059830;28;20462;-70
2022/11/16 13:11:20;;;;;;;45.53;21.67;;;;;;;;;;5056715;28;20460;-70
2022/11/16 13:14:02;;;;;;;39.67;18.20;;;;;;;;;;5060957;28;20449;-68
2022/11/16 13:16:30;;;;;;;48.80;20.40;;;;;;;;;;5071683;28;20877;-69
2022/11/16 13:18:59;;;;;;;53.87;19.57;;;;;;;;;;5063776;28;20475;-67
2022/11/16 13:21:36;;;;;;;47.77;17.83;;;;;;;;;;5052302;28;20480;-68
2022/11/16 13:24:08;;;;;;;53.43;21.00;;;;;;;;;;5053402;28;20487;-67
2022/11/16 13:26:44;;;;;;;45.37;20.23;;;;;;;;;;5051459;28;20460;-69
2022/11/16 13:29:26;;;;;;;47.37;19.53;;;;;;;;;;5060592;28;20899;-69
2022/11/16 13:32:02;;;;;;;37.33;17.90;;;;;;;;;;5053036;28;20464;-69
2022/11/16 13:34:32;;;;;;;40.53;18.33;;;;;;;;;;5061463;28;20508;-69
2022/11/16 13:37:00;;;;;;;46.13;19.37;;;;;;;;;;5054849;28;20465;-70
2022/11/16 13:39:43;;;;;;;39.67;17.10;;;;;;;;;;5059538;28;20566;-68
2022/11/16 13:42:15;;;;;;;33.53;14.93;;;;;;;;;;5060568;28;20825;-68
2022/11/16 13:44:44;;;;;;;31.87;15.53;;;;;;;;;;5058103;28;20571;-68
2022/11/16 13:47:21;;;;;;;27.60;15.17;;;;;;;;;;5063448;28;20473;-68
2022/11/16 13:49:51;;;;;;;31.07;12.60;;;;;;;;;;5054365;28;20468;-68
2022/11/16 13:52:23;;;;;;;42.03;15.77;;;;;;;;;;5057923;28;20472;-68
2022/11/16 13:54:53;;;;;;;35.27;14.80;;;;;;;;;;5053134;28;20480;-69
2022/11/16 13:57:23;;;;;;;24.87;12.27;;;;;;;;;;5055492;28;20468;-69
2022/11/16 13:59:56;;;;;;;35.30;15.23;;;;;;;;;;5054413;28;20457;-68
2022/11/16 14:02:32;;;;;;;28.30;12.07;;;;;;;;;;5054604;28;20459;-69
2022/11/16 14:05:00;;;;;;;31.73;15.00;;;;;;;;;;5053238;28;20582;-69
2022/11/16 14:07:43;;;;;;;28.20;13.30;;;;;;;;;;5061005;28;20460;-68
2022/11/16 14:10:11;;;;;;;21.67;9.93;;;;;;;;;;5075047;28;20463;-69
2022/11/16 14:12:51;;;;;;;26.30;11.93;;;;;;;;;;5081361;28;20536;-69
2022/11/16 14:15:21;;;;;;;27.87;14.17;;;;;;;;;;5073376;28;20479;-69
2022/11/16 14:18:04;;;;;;;19.93;11.20;;;;;;;;;;5072412;28;20463;-69
2022/11/16 14:20:45;;;;;;;30.17;12.30;;;;;;;;;;5071335;28;20756;-69
2022/11/16 14:23:22;;;;;;;29.80;12.20;;;;;;;;;;5066418;28;20495;-69
2022/11/16 14:25:56;;;;;;;25.40;11.20;;;;;;;;;;5066724;28;20476;-69
2022/11/16 14:28:42;;;;;;;24.50;11.47;;;;;;;;;;5070280;28;20507;-69
2022/11/16 14:31:31;;;;;;;27.60;13.53;;;;;;;;;;5072007;28;20471;-68
2022/11/16 14:34:18;;;;;;;26.47;13.50;;;;;;;;;;5041534;28;21107;-70
2022/11/16 14:36:49;;;;;;;27.10;13.47;;;;;;;;;;5060152;28;21077;-70
2022/11/16 14:39:25;;;;;;;30.00;14.07;;;;;;;;;;5068154;28;20464;-69
2022/11/16 14:44:46;;;;;;;27.60;11.93;;;;;;;;;;5024652;28;20476;-70
2022/11/16 14:47:42;;;;;;;23.77;12.40;;;;;;;;;;5063892;28;20472;-72
2022/11/16 15:00:10;;;;;;;25.83;12.33;;;;;;;;;;5053106;28;20487;-68
2022/11/16 15:02:44;;;;;;;30.43;14.03;;;;;;;;;;5055864;28;21140;-68
2022/11/16 15:05:28;;;;;;;34.43;15.80;;;;;;;;;;5070733;28;20482;-69
2022/11/16 15:08:01;;;;;;;30.17;14.03;;;;;;;;;;5076065;28;20447;-68
2022/11/16 15:10:32;;;;;;;33.27;15.53;;;;;;;;;;5060827;28;20468;-68
2022/11/16 15:13:07;;;;;;;28.63;15.20;;;;;;;;;;5073714;28;20886;-68
2022/11/16 15:15:40;;;;;;;32.43;15.70;;;;;;;;;;5060014;28;20465;-69
2022/11/16 15:21:32;;;;;;;37.00;14.63;;;;;;;;;;5053102;28;20483;-69
2022/11/16 15:24:20;;;;;;;35.70;16.00;;;;;;;;;;5069631;28;20836;-69
2022/11/16 15:26:52;;;;;;;29.90;15.03;;;;;;;;;;5061679;28;20520;-68
2022/11/16 15:29:23;;;;;;;30.60;14.43;;;;;;;;;;5066117;28;20469;-68
2022/11/16 15:32:17;;;;;;;36.67;13.57;;;;;;;;;;5061069;28;20969;-69
2022/11/16 15:34:55;;;;;;;25.73;14.70;;;;;;;;;;5069601;28;20499;-69
2022/11/16 15:37:34;;;;;;;33.47;14.43;;;;;;;;;;5071045;28;20452;-68
2022/11/16 15:40:05;;;;;;;30.90;14.60;;;;;;;;;;5064104;28;20963;-69
2022/11/16 15:42:40;;;;;;;36.77;14.50;;;;;;;;;;5074072;28;20444;-68
2022/11/16 15:45:22;;;;;;;31.57;15.10;;;;;;;;;;5073808;28;20584;-69
2022/11/16 15:48:00;;;;;;;30.50;14.80;;;;;;;;;;5062449;28;20463;-69
2022/11/16 15:50:37;;;;;;;32.70;14.70;;;;;;;;;;5061611;28;20583;-69
2022/11/16 15:53:09;;;;;;;30.73;14.23;;;;;;;;;;5056311;28;21127;-69
2022/11/16 15:55:37;;;;;;;24.10;13.00;;;;;;;;;;5070364;28;20470;-68